createdAt,value
2018-10-03T00:01:28.953Z,8.07
2018-10-03T00:07:32.345Z,8.53
2018-10-03T00:13:35.853Z,8.73
2018-10-03T00:19:39.179Z,7.57
2018-10-03T00:25:42.939Z,8.83
2018-10-03T00:31:46.413Z,9.17
2018-10-03T00:37:49.987Z,8.87
2018-10-03T00:43:53.366Z,7.93
2018-10-03T00:49:56.913Z,9.57
2018-10-03T00:56:00.393Z,9.13
2018-10-03T01:02:03.809Z,9.63
2018-10-03T01:08:07.360Z,8.13
2018-10-03T01:14:10.778Z,7.30
2018-10-03T01:20:14.241Z,8.80
2018-10-03T01:26:17.576Z,10.07
2018-10-03T01:32:20.953Z,9.93
2018-10-03T01:38:24.439Z,10.47
2018-10-03T01:44:27.816Z,10.27
2018-10-03T01:50:31.483Z,9.87
2018-10-03T01:56:34.840Z,10.93
2018-10-03T02:02:38.296Z,11.17
2018-10-03T02:08:41.952Z,11.07
2018-10-03T02:14:45.379Z,11.17
2018-10-03T02:20:48.847Z,11.07
2018-10-03T02:26:52.203Z,10.83
2018-10-03T02:32:56.568Z,10.93
2018-10-03T02:39:00.007Z,12.63
2018-10-03T02:45:03.472Z,13.07
2018-10-03T02:51:07.603Z,12.63
2018-10-03T02:57:11.749Z,12.20
2018-10-03T03:03:15.369Z,12.40
2018-10-03T03:09:19.332Z,13.63
2018-10-03T03:15:22.711Z,13.60
2018-10-03T03:21:26.047Z,14.90
2018-10-03T03:27:30.366Z,16.17
2018-10-03T03:33:33.989Z,15.77
2018-10-03T03:39:37.339Z,18.27
2018-10-03T03:45:40.824Z,18.93
2018-10-03T03:51:44.227Z,20.63
2018-10-03T03:57:48.277Z,21.17
2018-10-03T04:03:51.845Z,22.27
2018-10-03T04:09:56.388Z,23.30
2018-10-03T04:15:59.735Z,23.23
2018-10-03T04:22:03.155Z,22.73
2018-10-03T04:28:06.659Z,23.13
2018-10-03T04:34:10.046Z,23.73
2018-10-03T04:40:13.695Z,22.93
2018-10-03T04:46:17.167Z,21.67
2018-10-03T04:52:20.570Z,21.27
2018-10-03T04:58:24.000Z,21.90
2018-10-03T05:04:27.983Z,21.60
2018-10-03T05:10:31.643Z,21.33
2018-10-03T05:16:36.004Z,22.37
2018-10-03T05:22:39.412Z,22.37
2018-10-03T05:28:42.907Z,22.50
2018-10-03T05:34:46.348Z,22.07
2018-10-03T05:40:50.299Z,21.00
2018-10-03T05:46:53.677Z,22.43
2018-10-03T05:53:03.988Z,19.87
2018-10-03T05:59:09.980Z,17.93
2018-10-03T06:05:13.572Z,16.43
2018-10-03T06:11:17.203Z,15.57
2018-10-03T06:17:20.619Z,14.50
2018-10-03T06:23:24.577Z,13.63
2018-10-03T06:29:28.168Z,13.63
2018-10-03T06:35:32.947Z,11.70
2018-10-03T06:41:37.541Z,11.50
2018-10-03T06:47:41.332Z,11.30
2018-10-03T06:53:44.741Z,10.07
2018-10-03T06:59:48.228Z,9.40
2018-10-03T07:05:51.711Z,9.30
2018-10-03T07:11:55.151Z,9.23
2018-10-03T07:17:58.641Z,7.80
2018-10-03T07:24:02.109Z,8.97
2018-10-03T07:30:05.737Z,8.27
2018-10-03T07:36:09.283Z,7.93
2018-10-03T07:42:12.752Z,7.20
2018-10-03T07:48:17.335Z,7.30
2018-10-03T07:54:21.044Z,6.97
2018-10-03T08:00:28.915Z,7.77
2018-10-03T08:06:33.776Z,7.37
2018-10-03T08:12:37.390Z,6.93
2018-10-03T08:18:41.248Z,7.30
2018-10-03T08:24:45.053Z,6.00
2018-10-03T08:30:48.549Z,5.70
2018-10-03T08:36:53.662Z,6.03
2018-10-03T08:42:58.487Z,7.10
2018-10-03T08:49:02.280Z,6.17
2018-10-03T08:55:07.479Z,5.30
2018-10-03T09:01:11.578Z,4.57
2018-10-03T09:07:17.133Z,5.13
2018-10-03T09:13:21.052Z,4.57
2018-10-03T09:19:33.772Z,5.20
2018-10-03T09:25:37.550Z,5.30
2018-10-03T09:31:44.313Z,4.50
2018-10-03T09:37:47.840Z,4.77
2018-10-03T09:43:51.856Z,5.10
2018-10-03T09:49:56.119Z,4.40
2018-10-03T09:56:00.358Z,4.47
2018-10-03T10:02:03.864Z,5.13
2018-10-03T10:08:07.507Z,4.13
2018-10-03T10:14:11.753Z,4.87
2018-10-03T10:20:15.556Z,4.60
2018-10-03T10:26:19.154Z,4.07
2018-10-03T10:32:23.236Z,4.70
2018-10-03T10:38:26.731Z,3.63
2018-10-03T10:44:30.469Z,4.10
2018-10-03T10:50:34.784Z,4.53
2018-10-03T10:56:38.557Z,4.37
2018-10-03T11:02:42.203Z,4.93
2018-10-03T11:08:45.696Z,4.50
2018-10-03T11:14:49.538Z,4.00
2018-10-03T11:20:53.254Z,3.77
2018-10-03T11:26:56.684Z,3.60
2018-10-03T11:33:00.090Z,4.07
2018-10-03T11:39:04.945Z,3.07
2018-10-03T11:45:08.725Z,3.27
2018-10-03T11:51:12.401Z,3.63
2018-10-03T11:57:16.051Z,3.50
2018-10-03T12:03:19.833Z,3.43
2018-10-03T12:09:23.242Z,3.27
2018-10-03T12:15:28.470Z,3.50
2018-10-03T12:21:33.816Z,3.67
2018-10-03T12:27:37.458Z,3.23
2018-10-03T12:33:41.029Z,2.87
2018-10-03T12:39:44.670Z,3.33
2018-10-03T12:45:48.080Z,3.27
2018-10-03T12:51:51.687Z,2.93
2018-10-03T12:57:55.204Z,3.40
2018-10-03T13:03:58.660Z,2.97
2018-10-03T13:10:02.956Z,3.07
2018-10-03T13:16:06.562Z,3.63
2018-10-03T13:22:10.283Z,3.27
2018-10-03T13:28:13.792Z,3.17
2018-10-03T13:34:17.667Z,3.60
2018-10-03T13:40:21.272Z,3.37
2018-10-03T13:46:24.684Z,3.27
2018-10-03T13:52:28.130Z,3.30
2018-10-03T13:58:31.732Z,3.30
2018-10-03T14:04:35.174Z,3.80
2018-10-03T14:10:38.637Z,3.77
2018-10-03T14:16:42.056Z,3.60
2018-10-03T14:22:45.504Z,3.07
2018-10-03T14:28:48.955Z,3.30
2018-10-03T14:34:52.430Z,4.00
2018-10-03T14:40:55.919Z,4.10
2018-10-03T14:46:59.923Z,3.80
2018-10-03T14:53:03.970Z,3.13
2018-10-03T14:59:07.568Z,3.90
2018-10-03T15:05:11.616Z,3.43
2018-10-03T15:11:15.915Z,4.20
2018-10-03T15:17:19.468Z,3.93
2018-10-03T15:23:23.120Z,4.00
2018-10-03T15:29:26.530Z,3.93
2018-10-03T15:35:30.231Z,3.47
2018-10-03T15:41:34.798Z,3.27
2018-10-03T15:47:38.237Z,3.50
2018-10-03T15:53:41.766Z,3.87
2018-10-03T15:59:45.496Z,3.73
2018-10-03T16:05:49.010Z,3.93
2018-10-03T16:11:53.061Z,3.67
2018-10-03T16:17:56.447Z,3.67
2018-10-03T16:24:00.400Z,4.33
2018-10-03T16:30:04.032Z,4.20
2018-10-03T16:36:08.596Z,3.87
2018-10-03T16:42:12.072Z,3.77
2018-10-03T16:48:15.890Z,4.10
2018-10-03T16:54:19.646Z,4.07
2018-10-03T17:00:23.359Z,4.40
2018-10-03T17:06:26.840Z,4.20
2018-10-03T17:12:30.522Z,3.93
2018-10-03T17:18:34.600Z,3.80
2018-10-03T17:24:39.872Z,4.53
2018-10-03T17:30:43.990Z,4.00
2018-10-03T17:36:50.062Z,5.20
2018-10-03T17:42:53.809Z,5.00
2018-10-03T17:48:57.613Z,4.93
2018-10-03T17:55:01.069Z,5.27
2018-10-03T18:01:04.533Z,4.77
2018-10-03T18:07:08.086Z,4.90
2018-10-03T18:13:11.694Z,4.83
2018-10-03T18:19:15.723Z,5.33
2018-10-03T18:25:19.269Z,9.23
2018-10-03T18:31:22.799Z,9.63
2018-10-03T18:37:26.163Z,6.70
2018-10-03T18:43:29.656Z,14.83
2018-10-03T18:49:33.912Z,7.47
2018-10-03T18:55:38.019Z,6.77
2018-10-03T19:01:42.021Z,7.10
2018-10-03T19:07:45.814Z,7.13
2018-10-03T19:13:49.387Z,5.70
2018-10-03T19:19:53.446Z,4.77
2018-10-03T19:25:58.496Z,5.80
2018-10-03T19:32:02.063Z,6.50
2018-10-03T19:38:06.065Z,5.73
2018-10-03T19:44:09.619Z,5.63
2018-10-03T19:50:13.362Z,5.07
2018-10-03T19:56:16.795Z,5.70
2018-10-03T20:02:21.280Z,6.00
2018-10-03T20:08:25.823Z,5.53
2018-10-03T20:14:29.438Z,5.23
2018-10-03T20:20:33.201Z,5.90
2018-10-03T20:26:38.127Z,5.50
2018-10-03T20:32:41.782Z,4.97
2018-10-03T20:38:45.528Z,5.50
2018-10-03T20:44:49.313Z,4.60
2018-10-03T20:50:53.029Z,5.50
2018-10-03T20:56:58.129Z,5.37
2018-10-03T21:03:24.743Z,5.27
2018-10-03T21:09:28.355Z,5.67
2018-10-03T21:21:33.046Z,4.83
2018-10-03T21:27:36.482Z,4.83
2018-10-03T21:33:39.979Z,4.97
2018-10-03T21:39:43.498Z,4.93
2018-10-03T21:45:46.897Z,4.13
2018-10-03T21:51:50.267Z,4.73
2018-10-03T21:57:53.992Z,5.13
2018-10-03T22:03:58.143Z,3.87
2018-10-03T22:10:06.489Z,4.37
2018-10-03T22:16:09.948Z,4.80
2018-10-03T22:22:13.312Z,4.67
2018-10-03T22:28:17.275Z,4.33
2018-10-03T22:34:20.592Z,5.00
2018-10-03T22:40:24.133Z,4.87
2018-10-03T22:46:28.031Z,4.23
2018-10-03T22:52:31.376Z,4.20
2018-10-03T22:58:35.060Z,3.67
2018-10-03T23:04:38.415Z,4.50
2018-10-03T23:10:42.127Z,4.20
2018-10-03T23:16:45.545Z,4.80
2018-10-03T23:22:48.855Z,4.40
2018-10-03T23:28:52.475Z,4.90
2018-10-03T23:34:56.565Z,4.47
2018-10-03T23:41:00.510Z,4.43
2018-10-03T23:47:04.552Z,4.30
2018-10-03T23:53:08.028Z,4.60
2018-10-03T23:59:11.412Z,4.63
